Portada
METAR-TAF:

METAR-TAF

Aeropuertos :

Aeropuerto Príncipe Mohammad Bin Abdulaziz

Medina, Arabia Saudita

latitud: 24-33N, longitud: 039-42E, altitud: 654 m

Observación

El informe se hizo hace 31 minutos, a las 04:00 UTC
Viento 12 kt del oeste
Temperatura 20°C
Humedad 37%
Presión 1014 hPa
Visibilidad 10 km o más
sin nubes por debajo de 1500 m y sin presencia de cumulonimbus.

METAR: OEMA 280400Z 26012KT CAVOK 20/05 Q1014 NOSIG

Hora: 07:31 (04:31 UTC)

Pronóstico

El informe se hizo hace 5 horas y 31 minutos, a las 23:00 UTC
Pronóstico válido del 28 a las 00 UTC al 01 a las 06 UTC
Viento 3 kt con dirección variable
Visibilidad: 8000 m
Escasas nubes a una altura de 4500 ft
Evolucionando progresivamente
del 28 a las 06 UTC al 28 a las 08 UTC
Viento 14 kt del oeste

TAF: OEMA 272300Z 2800/0106 VRB03KT 8000 FEW045 BECMG 2806/2808 27014KT

Observaciones y pronósticos meteorológicos de más de 4000 aeropuertos (mensajes METAR y TAF).

Los puntos amarillos y rojos representan las estaciones disponibles.

Ponga el ratón en el punto deseado para ver el nombre de la estación.

Haga clic para ver las observaciones y los pronósticos meteorológicos.

Para cambiar el mapa : haga clic en los botones verdes con una cruz de color negro para hacer un zoom, en el botón verde con un guión para alejar o en las flechas verdes para mapas adyacentes.


METAR-TAF: